createdAt,value
2018-11-14T00:00:22.618Z,0.40
2018-11-14T00:02:51.191Z,0.53
2018-11-14T00:05:19.322Z,0.50
2018-11-14T00:07:47.660Z,0.50
2018-11-14T00:10:15.763Z,0.47
2018-11-14T00:12:43.821Z,0.60
2018-11-14T00:15:13.701Z,0.50
2018-11-14T00:17:42.786Z,0.70
2018-11-14T00:20:11.499Z,0.57
2018-11-14T00:22:40.413Z,0.40
2018-11-14T00:25:08.470Z,0.50
2018-11-14T00:27:36.923Z,0.90
2018-11-14T00:30:06.963Z,0.50
2018-11-14T00:32:35.046Z,0.30
2018-11-14T00:35:03.104Z,0.60
2018-11-14T00:37:31.283Z,0.50
2018-11-14T00:39:59.342Z,0.67
2018-11-14T00:42:27.684Z,0.63
2018-11-14T00:44:55.878Z,0.50
2018-11-14T00:47:23.945Z,0.60
2018-11-14T00:49:52.046Z,0.40
2018-11-14T00:52:20.190Z,0.50
2018-11-14T00:54:48.383Z,0.60
2018-11-14T00:57:16.557Z,0.60
2018-11-14T00:59:44.692Z,0.70
2018-11-14T01:02:13.028Z,0.60
2018-11-14T01:04:41.125Z,0.60
2018-11-14T01:07:09.274Z,0.50
2018-11-14T01:09:37.343Z,0.60
2018-11-14T01:12:05.480Z,0.50
2018-11-14T01:14:33.650Z,0.60
2018-11-14T01:17:01.868Z,0.60
2018-11-14T01:19:30.963Z,0.60
2018-11-14T01:21:59.046Z,0.37
2018-11-14T01:24:27.116Z,0.50
2018-11-14T01:26:55.257Z,0.40
2018-11-14T01:29:23.358Z,0.40
2018-11-14T01:31:51.455Z,0.47
2018-11-14T01:34:19.574Z,0.50
2018-11-14T01:36:47.746Z,0.57
2018-11-14T01:39:15.880Z,0.50
2018-11-14T01:41:43.958Z,0.70
2018-11-14T01:44:12.026Z,0.43
2018-11-14T01:46:40.141Z,0.50
2018-11-14T01:49:09.446Z,0.50
2018-11-14T01:51:37.576Z,0.50
2018-11-14T01:54:05.940Z,0.47
2018-11-14T01:56:34.021Z,0.50
2018-11-14T01:59:02.110Z,0.60
2018-11-14T02:01:30.203Z,0.50
2018-11-14T02:03:58.333Z,0.63
2018-11-14T02:06:26.411Z,0.73
2018-11-14T02:08:54.505Z,0.70
2018-11-14T02:11:22.759Z,0.77
2018-11-14T02:13:50.963Z,0.70
2018-11-14T02:16:19.131Z,0.53
2018-11-14T02:18:47.206Z,0.40
2018-11-14T02:21:15.308Z,0.53
2018-11-14T02:23:43.429Z,0.40
2018-11-14T02:26:11.842Z,0.50
2018-11-14T02:28:39.918Z,0.40
2018-11-14T02:31:07.986Z,0.57
2018-11-14T02:33:36.349Z,0.50
2018-11-14T02:36:04.407Z,0.60
2018-11-14T02:38:34.331Z,0.50
2018-11-14T02:41:02.399Z,0.50
2018-11-14T02:43:30.553Z,1.03
2018-11-14T02:45:58.603Z,0.50
2018-11-14T02:48:26.666Z,0.50
2018-11-14T02:51:06.306Z,0.40
2018-11-14T02:53:34.390Z,0.57
2018-11-14T02:56:08.550Z,0.43
2018-11-14T02:58:36.972Z,0.50
2018-11-14T03:01:05.578Z,0.50
2018-11-14T03:03:34.674Z,0.50
2018-11-14T03:06:02.739Z,0.60
2018-11-14T03:08:30.819Z,0.50
2018-11-14T03:10:58.902Z,0.57
2018-11-14T03:13:26.971Z,0.60
2018-11-14T03:15:55.035Z,0.40
2018-11-14T03:18:23.098Z,0.70
2018-11-14T03:20:51.187Z,0.53
2018-11-14T03:23:19.230Z,0.70
2018-11-14T03:25:47.294Z,0.50
2018-11-14T03:28:15.359Z,0.70
2018-11-14T03:30:43.448Z,0.77
2018-11-14T03:33:11.491Z,0.43
2018-11-14T03:35:45.327Z,0.60
2018-11-14T03:38:13.400Z,0.63
2018-11-14T03:40:41.478Z,0.70
2018-11-14T03:43:09.527Z,0.33
2018-11-14T03:45:37.595Z,0.50
2018-11-14T03:48:05.643Z,0.40
2018-11-14T03:50:33.875Z,0.50
2018-11-14T03:53:01.939Z,0.50
2018-11-14T03:55:30.019Z,0.50
2018-11-14T03:57:58.359Z,0.43
2018-11-14T04:00:26.446Z,0.60
2018-11-14T04:02:54.564Z,0.43
2018-11-14T04:05:22.726Z,0.60
2018-11-14T04:07:50.727Z,0.50
2018-11-14T04:10:19.043Z,0.50
2018-11-14T04:12:47.111Z,0.60
2018-11-14T04:15:15.594Z,0.67
2018-11-14T04:17:43.687Z,0.80
2018-11-14T04:20:15.372Z,0.67
2018-11-14T04:22:43.497Z,1.00
2018-11-14T04:25:13.668Z,1.10
2018-11-14T04:27:42.442Z,1.07
2018-11-14T04:30:12.675Z,1.20
2018-11-14T04:32:41.184Z,1.20
2018-11-14T04:35:10.547Z,1.00
2018-11-14T04:37:38.713Z,1.20
2018-11-14T04:40:08.749Z,1.00
2018-11-14T04:42:37.323Z,1.10
2018-11-14T04:45:06.759Z,1.10
2018-11-14T04:47:34.991Z,1.07
2018-11-14T04:50:03.050Z,1.00
2018-11-14T04:52:31.142Z,1.20
2018-11-14T04:54:59.214Z,1.30
2018-11-14T04:57:27.286Z,1.03
2018-11-14T04:59:55.362Z,0.97
2018-11-14T05:02:23.451Z,1.33
2018-11-14T05:04:51.484Z,1.00
2018-11-14T05:07:19.554Z,1.20
2018-11-14T05:09:47.603Z,0.93
2018-11-14T05:12:15.696Z,1.10
2018-11-14T05:14:43.731Z,1.30
2018-11-14T05:17:11.841Z,1.17
2018-11-14T05:19:39.894Z,1.33
2018-11-14T05:22:07.958Z,1.17
2018-11-14T05:24:36.050Z,1.20
2018-11-14T05:27:04.254Z,1.03
2018-11-14T05:29:32.346Z,1.07
2018-11-14T05:32:00.469Z,0.97
2018-11-14T05:34:28.491Z,1.17
2018-11-14T05:36:56.575Z,1.03
2018-11-14T05:39:24.939Z,1.10
2018-11-14T05:41:53.059Z,0.90
2018-11-14T05:44:21.107Z,1.10
2018-11-14T05:46:49.174Z,1.10
2018-11-14T05:49:17.234Z,1.00
2018-11-14T05:51:45.390Z,1.07
2018-11-14T05:54:13.435Z,1.00
2018-11-14T05:56:41.503Z,1.30
2018-11-14T05:59:09.562Z,1.43
2018-11-14T06:01:37.622Z,1.50
2018-11-14T06:04:05.922Z,1.20
2018-11-14T06:06:34.002Z,1.33
2018-11-14T06:09:02.073Z,1.20
2018-11-14T06:11:30.146Z,1.10
2018-11-14T06:13:58.195Z,1.27
2018-11-14T06:16:26.268Z,1.13
2018-11-14T06:18:54.346Z,1.30
2018-11-14T06:21:22.482Z,1.20
2018-11-14T06:23:50.543Z,0.90
2018-11-14T06:26:18.594Z,1.00
2018-11-14T06:28:46.670Z,1.10
2018-11-14T06:31:14.726Z,1.23
2018-11-14T06:33:42.782Z,1.20
2018-11-14T06:36:10.841Z,0.97
2018-11-14T06:38:38.922Z,1.30
2018-11-14T06:41:06.984Z,1.10
2018-11-14T06:43:35.274Z,1.53
2018-11-14T06:46:03.327Z,1.00
2018-11-14T06:48:31.396Z,1.10
2018-11-14T06:50:59.450Z,1.30
2018-11-14T06:53:27.514Z,1.53
2018-11-14T06:55:55.583Z,1.07
2018-11-14T06:58:23.671Z,0.90
2018-11-14T07:00:51.722Z,1.10
2018-11-14T07:03:19.844Z,1.00
2018-11-14T07:05:48.045Z,1.00
2018-11-14T07:08:16.186Z,1.23
2018-11-14T07:10:44.238Z,1.20
2018-11-14T07:13:13.207Z,0.90
2018-11-14T07:15:42.202Z,1.20
2018-11-14T07:18:11.087Z,1.13
2018-11-14T07:20:41.411Z,1.30
2018-11-14T07:23:09.472Z,1.10
2018-11-14T07:25:37.547Z,1.10
2018-11-14T07:28:05.869Z,1.10
2018-11-14T07:30:34.498Z,1.20
2018-11-14T07:33:03.874Z,1.10
2018-11-14T07:35:32.083Z,1.13
2018-11-14T07:38:50.360Z,0.93
2018-11-14T07:41:24.662Z,0.97
2018-11-14T07:43:52.942Z,0.93
2018-11-14T07:46:21.650Z,1.13
2018-11-14T07:48:50.562Z,1.23
2018-11-14T07:51:18.556Z,1.13
2018-11-14T07:53:46.722Z,1.20
2018-11-14T07:56:14.813Z,1.20
2018-11-14T07:58:42.910Z,0.90
2018-11-14T08:01:10.983Z,0.80
2018-11-14T08:03:39.053Z,1.10
2018-11-14T08:06:07.184Z,1.00
2018-11-14T08:08:35.262Z,1.10
2018-11-14T08:11:03.314Z,1.43
2018-11-14T08:13:32.514Z,1.07
2018-11-14T08:16:01.463Z,1.20
2018-11-14T08:18:29.677Z,0.90
2018-11-14T08:20:58.386Z,0.90
2018-11-14T08:23:26.442Z,0.90
2018-11-14T08:25:54.934Z,1.07
2018-11-14T08:28:23.094Z,1.10
2018-11-14T08:30:51.278Z,1.30
2018-11-14T08:33:19.401Z,1.03
2018-11-14T08:35:47.458Z,0.90
2018-11-14T08:38:15.510Z,1.10
2018-11-14T08:40:43.590Z,1.03
2018-11-14T08:43:11.670Z,1.10
2018-11-14T08:45:39.729Z,1.00
2018-11-14T08:48:08.513Z,0.93
2018-11-14T08:50:36.626Z,1.20
2018-11-14T08:53:05.467Z,1.00
2018-11-14T08:55:33.535Z,0.90
2018-11-14T08:58:01.599Z,0.90
2018-11-14T09:00:30.166Z,1.10
2018-11-14T09:02:58.259Z,1.00
2018-11-14T09:05:26.331Z,1.10
2018-11-14T09:07:54.493Z,1.10
2018-11-14T09:10:24.599Z,1.00
2018-11-14T09:12:52.711Z,1.37
2018-11-14T09:15:21.971Z,1.00
2018-11-14T09:17:50.235Z,0.83
2018-11-14T09:20:21.514Z,1.00
2018-11-14T09:22:49.822Z,0.93
2018-11-14T09:25:32.772Z,1.07
2018-11-14T09:28:01.562Z,1.20
2018-11-14T09:30:29.815Z,1.43
2018-11-14T09:32:57.941Z,0.90
2018-11-14T09:35:26.715Z,1.10
2018-11-14T09:37:55.902Z,0.77
2018-11-14T09:40:25.316Z,1.10
2018-11-14T09:42:53.433Z,1.17
2018-11-14T09:45:22.781Z,1.13
2018-11-14T09:47:50.939Z,1.00
2018-11-14T09:50:20.461Z,1.00
2018-11-14T09:52:50.978Z,1.30
2018-11-14T09:55:19.051Z,1.00
2018-11-14T09:57:47.211Z,0.90
2018-11-14T10:00:18.046Z,1.00
2018-11-14T10:02:47.113Z,1.20
2018-11-14T10:05:17.277Z,1.10
2018-11-14T10:07:45.653Z,1.13
2018-11-14T10:10:15.138Z,1.13
2018-11-14T10:12:43.214Z,1.00
2018-11-14T10:15:13.335Z,1.10
2018-11-14T10:17:42.395Z,1.43
2018-11-14T10:20:12.412Z,1.10
2018-11-14T10:22:41.039Z,1.20
2018-11-14T10:25:09.471Z,1.00
2018-11-14T10:27:38.402Z,1.17
2018-11-14T10:30:08.651Z,1.00
2018-11-14T10:32:37.014Z,0.90
2018-11-14T10:35:06.435Z,1.13
2018-11-14T10:37:34.496Z,1.17
2018-11-14T10:40:02.551Z,1.03
2018-11-14T10:42:30.611Z,1.00
2018-11-14T10:44:58.664Z,1.10
2018-11-14T10:47:26.736Z,1.10
2018-11-14T10:49:55.102Z,0.80
2018-11-14T10:52:23.158Z,1.03
2018-11-14T10:54:51.206Z,1.10
2018-11-14T10:57:19.262Z,1.00
2018-11-14T10:59:47.511Z,1.00
2018-11-14T11:02:21.174Z,1.10
2018-11-14T11:04:54.878Z,1.30
2018-11-14T11:07:28.427Z,1.10
2018-11-14T11:10:01.932Z,1.10
2018-11-14T11:12:35.463Z,1.10
2018-11-14T11:15:08.950Z,1.00
2018-11-14T11:17:42.442Z,1.13
2018-11-14T11:20:10.507Z,1.17
2018-11-14T11:22:38.579Z,1.10
2018-11-14T11:25:07.081Z,1.43
2018-11-14T11:27:35.567Z,0.80
2018-11-14T11:30:03.654Z,1.10
2018-11-14T11:32:31.859Z,0.90
2018-11-14T11:34:59.904Z,1.07
2018-11-14T11:37:28.051Z,1.10
2018-11-14T11:39:56.143Z,1.00
2018-11-14T11:42:24.287Z,1.07
2018-11-14T11:44:52.532Z,1.07
2018-11-14T11:47:20.648Z,1.20
2018-11-14T11:49:48.711Z,1.00
2018-11-14T11:52:16.803Z,0.83
2018-11-14T11:54:44.869Z,1.10
2018-11-14T11:57:12.958Z,1.10
2018-11-14T11:59:41.104Z,1.00
2018-11-14T12:02:09.184Z,1.33
2018-11-14T12:04:37.179Z,1.30
2018-11-14T12:07:05.691Z,1.10
2018-11-14T12:09:33.759Z,1.00
2018-11-14T12:12:01.870Z,0.90
2018-11-14T12:14:29.935Z,1.10
2018-11-14T12:16:58.292Z,0.90
2018-11-14T12:19:26.347Z,0.90
2018-11-14T12:21:54.430Z,0.90
2018-11-14T12:24:22.502Z,0.97
2018-11-14T12:26:50.559Z,0.90
2018-11-14T12:29:18.628Z,1.20
2018-11-14T12:31:46.700Z,1.17
2018-11-14T12:34:14.759Z,1.30
2018-11-14T12:36:42.867Z,0.90
2018-11-14T12:39:10.930Z,1.10
2018-11-14T12:41:39.027Z,0.90
2018-11-14T12:44:07.084Z,1.00
2018-11-14T12:46:35.442Z,1.03
2018-11-14T12:49:03.527Z,1.20
2018-11-14T12:51:31.766Z,0.80
2018-11-14T12:53:59.854Z,0.73
2018-11-14T12:56:27.915Z,0.93
2018-11-14T12:58:56.001Z,1.00
2018-11-14T13:01:24.061Z,0.90
2018-11-14T13:03:52.189Z,1.43
2018-11-14T13:06:20.727Z,1.00
2018-11-14T13:08:48.820Z,0.90
2018-11-14T13:11:16.940Z,0.80
2018-11-14T13:13:47.798Z,1.20
2018-11-14T13:16:16.860Z,1.03
2018-11-14T13:18:45.099Z,1.10
2018-11-14T13:21:13.303Z,1.17
2018-11-14T13:23:41.813Z,1.00
2018-11-14T13:26:11.609Z,1.00
2018-11-14T13:28:39.669Z,1.10
2018-11-14T13:31:08.024Z,0.90
2018-11-14T13:33:36.090Z,1.17
2018-11-14T13:36:04.151Z,0.97
2018-11-14T13:38:32.286Z,1.13
2018-11-14T13:41:00.367Z,1.00
2018-11-14T13:43:28.442Z,0.90
2018-11-14T13:45:56.756Z,1.10
2018-11-14T13:48:24.832Z,1.00
2018-11-14T13:50:53.171Z,1.10
2018-11-14T13:53:21.091Z,0.90
2018-11-14T13:55:49.175Z,0.97
2018-11-14T13:58:17.271Z,0.93
2018-11-14T14:00:45.332Z,1.10
2018-11-14T14:03:13.399Z,0.83
2018-11-14T14:05:41.451Z,0.97
2018-11-14T14:08:09.554Z,0.90
2018-11-14T14:10:37.570Z,1.10
2018-11-14T14:13:05.640Z,0.90
2018-11-14T14:15:33.943Z,1.17
2018-11-14T14:18:02.007Z,1.07
2018-11-14T14:20:30.070Z,1.00
2018-11-14T14:22:58.119Z,0.90
2018-11-14T14:25:26.473Z,0.83
2018-11-14T14:27:54.549Z,1.10
2018-11-14T14:30:23.375Z,0.90
2018-11-14T14:32:51.450Z,0.97
2018-11-14T14:35:20.600Z,1.10
2018-11-14T14:37:48.931Z,0.90
2018-11-14T14:40:19.135Z,1.00
2018-11-14T14:42:47.415Z,0.90
2018-11-14T14:45:17.120Z,1.00
2018-11-14T14:47:45.194Z,1.00
2018-11-14T14:50:14.787Z,0.83
2018-11-14T14:52:43.372Z,1.17
2018-11-14T14:55:14.211Z,0.90
2018-11-14T14:57:43.128Z,1.00
2018-11-14T15:00:17.295Z,0.90
2018-11-14T15:02:45.355Z,1.03
2018-11-14T15:05:13.862Z,0.87
2018-11-14T15:07:42.254Z,1.07
2018-11-14T15:10:13.022Z,0.80
2018-11-14T15:12:41.151Z,1.00
2018-11-14T15:15:09.203Z,0.90
2018-11-14T15:17:37.501Z,0.97
2018-11-14T15:20:08.567Z,0.83
2018-11-14T15:22:36.666Z,1.00
2018-11-14T15:25:05.023Z,0.97
2018-11-14T15:27:33.111Z,0.80
2018-11-14T15:30:01.169Z,0.93
2018-11-14T15:32:29.251Z,1.00
2018-11-14T15:34:57.321Z,0.80
2018-11-14T15:37:25.406Z,0.97
2018-11-14T15:39:53.459Z,1.00
2018-11-14T15:42:21.627Z,0.93
2018-11-14T15:44:49.694Z,0.90
2018-11-14T15:47:17.762Z,1.00
2018-11-14T15:49:45.823Z,1.13
2018-11-14T15:52:13.908Z,1.10
2018-11-14T15:54:42.001Z,1.17
2018-11-14T15:57:10.336Z,0.90
2018-11-14T15:59:38.427Z,0.87
2018-11-14T16:02:06.494Z,0.80
2018-11-14T16:04:34.564Z,0.97
2018-11-14T16:07:02.653Z,0.90
2018-11-14T16:09:30.733Z,1.00
2018-11-14T16:11:58.823Z,0.73
2018-11-14T16:14:26.863Z,0.90
2018-11-14T16:16:54.934Z,1.00
2018-11-14T16:19:23.107Z,0.70
2018-11-14T16:21:51.176Z,0.93
2018-11-14T16:24:19.288Z,1.03
2018-11-14T16:26:47.315Z,0.83
2018-11-14T16:29:17.198Z,0.90
2018-11-14T16:31:49.036Z,0.80
2018-11-14T16:34:17.109Z,0.90
2018-11-14T16:36:45.174Z,0.83
2018-11-14T16:39:13.654Z,0.80
2018-11-14T16:41:41.719Z,0.80
2018-11-14T16:44:10.003Z,0.90
2018-11-14T16:46:38.267Z,0.80
2018-11-14T16:49:06.607Z,0.73
2018-11-14T16:51:34.703Z,0.87
2018-11-14T16:54:03.047Z,0.73
2018-11-14T16:56:31.095Z,0.80
2018-11-14T16:58:59.180Z,0.90
2018-11-14T17:01:27.256Z,0.83
2018-11-14T17:03:55.357Z,0.80
2018-11-14T17:06:23.499Z,0.80
2018-11-14T17:08:51.583Z,1.00
2018-11-14T17:11:19.922Z,0.80
2018-11-14T17:13:47.984Z,0.90
2018-11-14T17:16:16.047Z,0.93
2018-11-14T17:18:44.159Z,1.00
2018-11-14T17:21:12.254Z,0.83
2018-11-14T17:23:40.327Z,0.80
2018-11-14T17:26:08.409Z,0.97
2018-11-14T17:28:37.379Z,1.00
2018-11-14T17:31:06.203Z,1.00
2018-11-14T17:33:34.283Z,0.90
2018-11-14T17:36:02.395Z,1.07
2018-11-14T17:38:30.398Z,1.20
2018-11-14T17:40:58.475Z,0.80
2018-11-14T17:43:26.824Z,1.30
2018-11-14T17:45:54.964Z,0.70
2018-11-14T17:48:23.076Z,0.80
2018-11-14T17:50:51.568Z,0.90
2018-11-14T17:53:19.548Z,1.00
2018-11-14T17:55:47.671Z,0.90
2018-11-14T18:00:52.981Z,0.80
2018-11-14T18:03:20.986Z,0.70
2018-11-14T18:05:49.039Z,0.80
2018-11-14T18:08:17.130Z,1.00
2018-11-14T18:10:45.200Z,0.83
2018-11-14T18:13:13.269Z,0.80
2018-11-14T18:15:41.359Z,0.70
2018-11-14T18:18:09.407Z,0.90
2018-11-14T18:20:37.463Z,0.80
2018-11-14T18:23:05.522Z,1.00
2018-11-14T18:25:33.582Z,0.70
2018-11-14T18:28:01.662Z,0.83
2018-11-14T18:30:30.580Z,0.80
2018-11-14T18:32:59.936Z,0.60
2018-11-14T18:35:28.327Z,1.10
2018-11-14T18:37:57.334Z,0.60
2018-11-14T18:40:27.758Z,0.83
2018-11-14T18:42:55.827Z,0.80
2018-11-14T18:45:26.819Z,0.60
2018-11-14T18:47:55.642Z,0.73
2018-11-14T18:50:24.694Z,0.70
2018-11-14T18:52:53.004Z,0.97
2018-11-14T18:55:23.523Z,0.73
2018-11-14T18:57:51.821Z,1.00
2018-11-14T19:00:21.871Z,0.80
2018-11-14T19:02:50.304Z,1.00
2018-11-14T19:05:19.020Z,0.90
2018-11-14T19:07:47.068Z,0.73
2018-11-14T19:10:16.831Z,1.10
2018-11-14T19:12:45.647Z,0.90
2018-11-14T19:15:15.900Z,0.80
2018-11-14T19:17:44.096Z,0.80
2018-11-14T19:20:13.955Z,0.90
2018-11-14T19:22:42.343Z,0.77
2018-11-14T19:25:12.298Z,1.00
2018-11-14T19:27:40.640Z,0.70
2018-11-14T19:30:10.955Z,0.70
2018-11-14T19:32:39.111Z,0.83
2018-11-14T19:35:09.192Z,0.73
2018-11-14T19:37:37.214Z,0.90
2018-11-14T19:40:07.371Z,0.70
2018-11-14T19:42:35.435Z,0.87
2018-11-14T19:45:03.514Z,0.87
2018-11-14T19:47:31.580Z,0.93
2018-11-14T19:49:59.651Z,0.70
2018-11-14T19:52:27.766Z,0.80
2018-11-14T19:54:55.838Z,0.83
2018-11-14T19:57:24.110Z,0.73
2018-11-14T19:59:52.263Z,0.83
2018-11-14T20:02:20.346Z,0.87
2018-11-14T20:04:48.566Z,0.80
2018-11-14T20:07:16.735Z,0.90
2018-11-14T20:09:44.850Z,0.80
2018-11-14T20:12:13.058Z,0.70
2018-11-14T20:14:41.118Z,0.63
2018-11-14T20:17:09.610Z,0.77
2018-11-14T20:19:37.799Z,0.80
2018-11-14T20:22:05.904Z,1.00
2018-11-14T20:24:34.009Z,1.00
2018-11-14T20:27:02.111Z,0.90
2018-11-14T20:29:30.167Z,0.80
2018-11-14T20:31:58.393Z,0.80
2018-11-14T20:34:26.406Z,0.70
2018-11-14T20:36:54.581Z,0.70
2018-11-14T20:39:22.674Z,0.70
2018-11-14T20:41:51.007Z,0.83
2018-11-14T20:44:19.062Z,1.00
2018-11-14T20:46:47.158Z,0.70
2018-11-14T20:49:15.295Z,0.80
2018-11-14T20:51:43.396Z,0.70
2018-11-14T20:54:11.491Z,0.60
2018-11-14T20:56:39.622Z,0.80
2018-11-14T20:59:07.863Z,0.70
2018-11-14T21:01:35.923Z,0.80
2018-11-14T21:04:04.002Z,0.70
2018-11-14T21:06:32.119Z,0.90
2018-11-14T21:09:00.202Z,0.83
2018-11-14T21:11:28.265Z,0.83
2018-11-14T21:13:56.559Z,0.70
2018-11-14T21:16:24.635Z,0.90
2018-11-14T21:18:52.695Z,0.80
2018-11-14T21:21:20.756Z,0.80
2018-11-14T21:23:49.110Z,0.83
2018-11-14T21:26:17.242Z,0.70
2018-11-14T21:28:45.310Z,0.70
2018-11-14T21:31:13.380Z,0.60
2018-11-14T21:33:41.581Z,0.73
2018-11-14T21:36:09.779Z,0.80
2018-11-14T21:38:37.956Z,0.70
2018-11-14T21:41:06.340Z,0.80
2018-11-14T21:43:34.826Z,0.60
2018-11-14T21:46:02.910Z,0.80
2018-11-14T21:48:31.069Z,0.80
2018-11-14T21:50:59.219Z,0.80
2018-11-14T21:53:27.283Z,0.70
2018-11-14T21:55:55.435Z,0.90
2018-11-14T21:58:24.397Z,0.70
2018-11-14T22:00:52.538Z,0.60
2018-11-14T22:03:20.631Z,0.80
2018-11-14T22:05:48.740Z,0.90
2018-11-14T22:08:17.025Z,0.87
2018-11-14T22:10:45.202Z,0.70
2018-11-14T22:13:13.361Z,0.70
2018-11-14T22:15:41.480Z,0.80
2018-11-14T22:18:09.592Z,0.70
2018-11-14T22:20:37.702Z,0.70
2018-11-14T22:23:05.798Z,0.90
2018-11-14T22:25:34.034Z,0.70
2018-11-14T22:28:02.338Z,0.80
2018-11-14T22:30:32.728Z,1.00
2018-11-14T22:33:00.856Z,0.80
2018-11-14T22:35:31.552Z,0.90
2018-11-14T22:37:59.630Z,0.70
2018-11-14T22:40:29.277Z,0.70
2018-11-14T22:42:57.415Z,1.00
2018-11-14T22:45:26.757Z,0.80
2018-11-14T22:47:54.883Z,0.83
2018-11-14T22:50:23.922Z,0.60
2018-11-14T22:52:52.431Z,0.90
2018-11-14T22:55:21.595Z,0.80
2018-11-14T22:57:50.530Z,0.90
2018-11-14T23:00:27.115Z,0.73
2018-11-14T23:02:56.541Z,0.80
2018-11-14T23:05:24.618Z,0.80
2018-11-14T23:07:53.633Z,0.80
2018-11-14T23:10:22.511Z,0.80
2018-11-14T23:12:50.897Z,0.87
2018-11-14T23:15:19.750Z,0.80
2018-11-14T23:17:47.880Z,0.80
2018-11-14T23:20:16.543Z,0.70
2018-11-14T23:22:45.356Z,0.80
2018-11-14T23:25:14.045Z,0.70
2018-11-14T23:27:43.690Z,0.90
2018-11-14T23:30:12.827Z,0.80
2018-11-14T23:32:42.309Z,0.77
2018-11-14T23:35:16.339Z,0.80
2018-11-14T23:37:46.228Z,0.80
2018-11-14T23:40:14.419Z,0.60
2018-11-14T23:42:42.941Z,0.77
2018-11-14T23:45:12.787Z,0.90
2018-11-14T23:47:41.311Z,0.77
2018-11-14T23:50:12.131Z,0.90
2018-11-14T23:52:40.671Z,0.70
2018-11-14T23:55:09.108Z,0.70
2018-11-14T23:57:37.715Z,0.70
